Boga Indah — 9V2399 — position and weather

sailwx.info

Track history (hours):
 
Tides and Currents Weather Stations Pressure Air Temp Water Temp Dewpoint Dewpoint Depression Visibility Wind Speed Wind Dir Waves Ship Positions

Boga Indah

Last reported at 2018-Apr-15 02:27 UTC. Time now 2018-Apr-24 16:38 UTC.
Position N 22°30' E 121°33'.
Warning: this ship's position is 9 days out of date.

Length 229 m; draft 12.3 m.

Type: Cargo ship. MMSI: 563770000.

Date/timePositionNaut miles runAvg speedWind from/ knotsBaromVisibWave heightAir tempDewpointWater temp
2018-Apr-15 02:27N 22°30' E 121°33'1513.4
2018-Apr-15 01:19N 22°16' E 121°26'413.5
2018-Apr-15 01:00N 22°12' E 121°24'714.1
2018-Apr-15 00:28N 22°05' E 121°21'714.0
2018-Apr-15 00:00N 21°59' E 121°19'  
2018-Apr-07 14:39S 16°22' E 114°23'214.0
2018-Apr-07 14:28S 16°24' E 114°23'814.0
2018-Apr-07 13:54S 16°32' E 114°21'613.9
2018-Apr-07 13:30S 16°37' E 114°21'1314.0
2018-Apr-07 12:35S 16°50' E 114°19'314.1
2018-Apr-07 12:23S 16°53' E 114°18'1214.1
2018-Apr-07 11:31S 17°05' E 114°16'014.4
2018-Apr-07 11:31S 17°05' E 114°16'713.8
2018-Apr-07 11:00S 17°12' E 114°14'1113.5
2018-Apr-07 10:12S 17°23' E 114°12'313.6
2018-Apr-07 10:00S 17°25' E 114°12'913.7
2018-Apr-07 09:19S 17°35' E 114°10'513.6
2018-Apr-07 08:57S 17°39' E 114°09'  
Track history (hours):
 
Tides and Currents Weather Stations Pressure Air Temp Water Temp Dewpoint Dewpoint Depression Visibility Wind Speed Wind Dir Waves Ship Positions

Boga Indah

Last reported at 2018-Apr-15 02:27 UTC. Time now 2018-Apr-24 16:38 UTC.
Position N 22°30' E 121°33'.
Warning: this ship's position is 9 days out of date.

Length 229 m; draft 12.3 m.

Type: Cargo ship. MMSI: 563770000.

Date/timePositionNaut miles runAvg speedWind from/ knotsBaromVisibWave heightAir tempDewpointWater temp
2018-Apr-15 02:27N 22°30' E 121°33'1513.4
2018-Apr-15 01:19N 22°16' E 121°26'413.5
2018-Apr-15 01:00N 22°12' E 121°24'714.1
2018-Apr-15 00:28N 22°05' E 121°21'714.0
2018-Apr-15 00:00N 21°59' E 121°19'  
2018-Apr-07 14:39S 16°22' E 114°23'214.0
2018-Apr-07 14:28S 16°24' E 114°23'814.0
2018-Apr-07 13:54S 16°32' E 114°21'613.9
2018-Apr-07 13:30S 16°37' E 114°21'1314.0
2018-Apr-07 12:35S 16°50' E 114°19'314.1
2018-Apr-07 12:23S 16°53' E 114°18'1214.1
2018-Apr-07 11:31S 17°05' E 114°16'014.4
2018-Apr-07 11:31S 17°05' E 114°16'713.8
2018-Apr-07 11:00S 17°12' E 114°14'1113.5
2018-Apr-07 10:12S 17°23' E 114°12'313.6
2018-Apr-07 10:00S 17°25' E 114°12'913.7
2018-Apr-07 09:19S 17°35' E 114°10'513.6
2018-Apr-07 08:57S 17°39' E 114°09'  

Dump ship's entire track history